Time;durP1;ratioP1;P1;durP2;ratioP2;P2;SDS_P1;SDS_P2;PMS_P1;PMS_P2;Temp;Humidity;BMP_temperature;BMP_pressure;BME280_temperature;BME280_humidity;BME280_pressure;Samples;Min_cycle;Max_cycle;Signal;HPM_P1;HPM_P2
2021/01/15 00:01:17;;;;;;;5.28;4.55;;;5.70;55.30;;;;;;2103190;28;20047;-58
2021/01/15 00:02:38;;;;;;;6.10;3.83;;;5.70;55.30;;;;;;2104724;28;20443;-56
2021/01/15 00:03:58;;;;;;;4.95;4.43;;;5.70;55.30;;;;;;2099212;28;20131;-57
2021/01/15 00:05:19;;;;;;;4.53;4.10;;;5.70;55.30;;;;;;2103478;28;20016;-57
2021/01/15 00:06:41;;;;;;;6.00;4.53;;;5.70;55.40;;;;;;2097082;28;20012;-57
2021/01/15 00:08:02;;;;;;;5.63;4.07;;;5.70;55.40;;;;;;2107515;28;20032;-57
2021/01/15 00:09:23;;;;;;;6.05;4.47;;;5.70;55.40;;;;;;2103799;28;20021;-57
2021/01/15 00:10:44;;;;;;;6.70;4.43;;;5.70;55.40;;;;;;2104811;28;20024;-58
2021/01/15 00:12:05;;;;;;;5.40;4.10;;;5.70;55.40;;;;;;2101709;28;20035;-58
2021/01/15 00:13:26;;;;;;;5.75;4.72;;;5.70;55.40;;;;;;2105338;28;20032;-57
2021/01/15 00:14:47;;;;;;;5.00;4.50;;;5.60;55.30;;;;;;2104959;28;20031;-58
2021/01/15 00:16:17;;;;;;;5.03;4.50;;;5.60;55.30;;;;;;2104845;28;20028;-57
2021/01/15 00:17:37;;;;;;;5.35;4.68;;;5.60;55.30;;;;;;2103928;28;20463;-57
2021/01/15 00:19:00;;;;;;;4.88;4.20;;;5.60;55.30;;;;;;2098671;28;20050;-58
2021/01/15 00:20:21;;;;;;;6.53;4.85;;;5.60;55.30;;;;;;2105037;28;20024;-57
2021/01/15 00:21:48;;;;;;;4.70;4.30;;;5.60;55.30;;;;;;2104825;28;20075;-57
2021/01/15 00:23:09;;;;;;;6.55;4.25;;;5.60;55.30;;;;;;2104753;28;20052;-57
2021/01/15 00:24:30;;;;;;;4.55;4.15;;;5.60;55.30;;;;;;2102690;28;20028;-57
2021/01/15 00:25:51;;;;;;;4.63;4.22;;;5.60;55.30;;;;;;2103563;28;20039;-57
2021/01/15 00:27:11;;;;;;;4.85;4.28;;;5.60;55.30;;;;;;2106749;28;20032;-57
2021/01/15 00:28:32;;;;;;;6.50;4.57;;;5.60;55.30;;;;;;2105283;28;20036;-57
2021/01/15 00:29:53;;;;;;;5.05;4.53;;;5.60;55.30;;;;;;2106222;28;20088;-57
2021/01/15 00:31:14;;;;;;;4.65;4.20;;;5.60;55.30;;;;;;2102743;28;20024;-58
2021/01/15 00:32:36;;;;;;;4.50;4.10;;;5.60;55.30;;;;;;2104138;28;20040;-57
2021/01/15 00:33:57;;;;;;;5.03;4.05;;;5.50;55.30;;;;;;2103611;28;20039;-57
2021/01/15 00:35:18;;;;;;;4.60;4.30;;;5.60;55.40;;;;;;2102951;28;20469;-58
2021/01/15 00:36:42;;;;;;;4.45;4.05;;;5.50;55.30;;;;;;2105162;28;20119;-56
2021/01/15 00:38:03;;;;;;;5.63;4.30;;;5.50;55.30;;;;;;2103158;28;20116;-58
2021/01/15 00:39:24;;;;;;;6.15;4.25;;;5.50;55.40;;;;;;2107087;28;20030;-58
2021/01/15 00:40:45;;;;;;;5.15;4.45;;;5.50;55.40;;;;;;2104600;28;20028;-57
2021/01/15 00:42:09;;;;;;;7.00;4.50;;;5.50;55.40;;;;;;2105786;28;20027;-57
2021/01/15 00:43:30;;;;;;;4.47;4.07;;;5.50;55.30;;;;;;2102940;28;20055;-57
2021/01/15 00:44:55;;;;;;;5.15;4.60;;;5.50;55.30;;;;;;2104618;28;20032;-57
2021/01/15 00:46:32;;;;;;;4.68;4.22;;;5.50;55.30;;;;;;2103304;28;20020;-57
2021/01/15 00:47:53;;;;;;;4.82;4.43;;;5.50;55.30;;;;;;2105217;28;20035;-58
2021/01/15 00:49:15;;;;;;;4.65;4.25;;;5.50;55.40;;;;;;2103065;28;20058;-58
2021/01/15 00:50:36;;;;;;;5.88;4.78;;;5.50;55.50;;;;;;2104307;28;20516;-57
2021/01/15 00:51:57;;;;;;;5.00;4.50;;;5.50;55.40;;;;;;2105947;28;20505;-57
2021/01/15 00:53:18;;;;;;;7.38;4.70;;;5.50;55.30;;;;;;2103533;28;20028;-58
2021/01/15 00:54:39;;;;;;;4.97;4.47;;;5.50;55.40;;;;;;2106414;28;21042;-58
2021/01/15 00:56:00;;;;;;;5.72;4.95;;;5.50;55.40;;;;;;2105750;28;20036;-58
2021/01/15 00:57:21;;;;;;;7.25;4.25;;;5.50;55.40;;;;;;2104510;28;20024;-58
2021/01/15 00:58:42;;;;;;;6.22;4.30;;;5.40;55.40;;;;;;2096490;28;20029;-58
2021/01/15 01:00:05;;;;;;;4.43;4.03;;;5.40;55.40;;;;;;2102013;28;20036;-57
2021/01/15 01:01:26;;;;;;;5.95;4.13;;;5.40;55.50;;;;;;2104278;28;20106;-57
2021/01/15 01:02:47;;;;;;;4.80;4.30;;;5.40;55.60;;;;;;2105228;28;20016;-58
2021/01/15 01:04:08;;;;;;;5.05;4.35;;;5.40;55.50;;;;;;2104186;28;20050;-58
2021/01/15 01:05:29;;;;;;;6.03;4.70;;;5.40;55.40;;;;;;2105785;28;20028;-57
2021/01/15 01:06:50;;;;;;;6.25;4.30;;;5.40;55.50;;;;;;2104237;28;20366;-57
2021/01/15 01:08:11;;;;;;;5.82;4.50;;;5.40;55.60;;;;;;2102730;28;20040;-56
2021/01/15 01:09:31;;;;;;;5.35;4.03;;;5.40;55.50;;;;;;2104096;28;20035;-57
2021/01/15 01:10:52;;;;;;;6.13;4.60;;;5.40;55.60;;;;;;2096948;28;20123;-56
2021/01/15 01:12:13;;;;;;;4.90;4.32;;;5.40;55.60;;;;;;2103007;28;20020;-57
2021/01/15 01:13:34;;;;;;;6.00;4.45;;;5.40;55.60;;;;;;2103229;28;20032;-57
2021/01/15 01:14:55;;;;;;;5.28;4.78;;;5.40;55.60;;;;;;2096132;28;20056;-58
2021/01/15 01:16:17;;;;;;;7.25;4.97;;;5.40;55.60;;;;;;2104271;28;20137;-57
2021/01/15 01:17:38;;;;;;;4.63;4.22;;;5.40;55.60;;;;;;2104936;28;20030;-58
2021/01/15 01:18:59;;;;;;;6.03;4.43;;;5.40;55.70;;;;;;2106389;28;20047;-58
2021/01/15 01:20:20;;;;;;;7.93;4.38;;;5.40;55.60;;;;;;2104317;28;20059;-57
2021/01/15 01:21:41;;;;;;;4.82;4.30;;;5.40;55.60;;;;;;2107265;28;20012;-57
2021/01/15 01:23:02;;;;;;;5.22;4.72;;;5.40;55.60;;;;;;2105930;28;20126;-57
2021/01/15 01:24:24;;;;;;;5.55;4.88;;;5.40;55.70;;;;;;2105902;28;20024;-56
2021/01/15 01:25:45;;;;;;;5.15;4.70;;;5.40;55.60;;;;;;2105833;28;20028;-57
2021/01/15 01:27:05;;;;;;;4.85;4.45;;;5.40;55.60;;;;;;2103545;28;20416;-57
2021/01/15 01:28:26;;;;;;;4.88;4.47;;;5.40;55.60;;;;;;2106155;28;20046;-57
2021/01/15 01:29:47;;;;;;;5.70;5.00;;;5.40;55.70;;;;;;2096286;28;20076;-57
2021/01/15 01:31:16;;;;;;;5.95;4.97;;;5.40;55.70;;;;;;2106603;28;20028;-57
2021/01/15 01:32:37;;;;;;;5.80;5.20;;;5.40;55.70;;;;;;2105965;28;20117;-57
2021/01/15 01:33:58;;;;;;;5.35;4.85;;;5.40;55.70;;;;;;2104126;28;20039;-57
2021/01/15 01:35:19;;;;;;;6.38;5.05;;;5.40;55.70;;;;;;2104056;28;20088;-57
2021/01/15 01:36:40;;;;;;;5.68;4.95;;;5.40;55.80;;;;;;2097886;28;20027;-57
2021/01/15 01:38:01;;;;;;;5.53;5.03;;;5.40;55.70;;;;;;2103655;28;20024;-57
2021/01/15 01:39:22;;;;;;;6.50;5.07;;;5.40;55.80;;;;;;2106050;28;20020;-57
2021/01/15 01:40:44;;;;;;;5.85;5.25;;;5.40;55.80;;;;;;2106470;28;20115;-57
2021/01/15 01:42:05;;;;;;;7.40;5.45;;;5.40;55.90;;;;;;2107647;28;20106;-57
2021/01/15 01:43:26;;;;;;;6.50;5.55;;;5.40;55.80;;;;;;2100135;28;20051;-56
2021/01/15 01:44:47;;;;;;;6.78;6.05;;;5.40;55.90;;;;;;2107180;28;20035;-56
2021/01/15 01:46:08;;;;;;;6.20;5.60;;;5.40;56.40;;;;;;2104997;28;20021;-57
2021/01/15 01:47:29;;;;;;;6.70;6.07;;;5.30;55.90;;;;;;2106825;28;20032;-52
2021/01/15 01:48:51;;;;;;;7.38;5.95;;;5.30;55.90;;;;;;2106862;28;20342;-57
2021/01/15 01:50:13;;;;;;;7.85;6.85;;;5.30;55.90;;;;;;2103110;28;20028;-58
2021/01/15 01:51:33;;;;;;;8.18;6.82;;;5.30;56.00;;;;;;2107417;28;20040;-57
2021/01/15 01:52:55;;;;;;;8.20;7.30;;;5.40;56.10;;;;;;2105926;28;20076;-56
2021/01/15 01:54:17;;;;;;;7.53;6.63;;;5.30;56.00;;;;;;2105099;28;20032;-57
2021/01/15 01:55:39;;;;;;;8.20;6.90;;;5.30;56.00;;;;;;2105566;28;20437;-57
2021/01/15 01:57:01;;;;;;;8.15;7.35;;;5.30;56.10;;;;;;2101988;28;20032;-58
2021/01/15 01:58:23;;;;;;;9.45;7.47;;;5.30;56.10;;;;;;2105754;28;20016;-56
2021/01/15 01:59:43;;;;;;;11.10;7.75;;;5.30;56.10;;;;;;2105427;28;20386;-58
2021/01/15 02:01:05;;;;;;;12.18;8.25;;;5.30;56.20;;;;;;2103346;28;20032;-57
2021/01/15 02:02:27;;;;;;;8.98;8.00;;;5.30;56.20;;;;;;2105415;28;20024;-59
2021/01/15 02:04:00;;;;;;;12.15;8.82;;;5.30;56.30;;;;;;2105168;28;20051;-57
2021/01/15 02:05:21;;;;;;;10.30;9.15;;;5.30;56.30;;;;;;2105367;28;20079;-57
2021/01/15 02:06:42;;;;;;;14.95;11.55;;;5.30;56.30;;;;;;2105138;28;20032;-58
2021/01/15 02:08:03;;;;;;;15.10;10.77;;;5.30;56.30;;;;;;2105237;28;20067;-58
2021/01/15 02:09:44;;;;;;;18.27;11.85;;;5.30;56.40;;;;;;2106092;28;20056;-58
2021/01/15 02:11:31;;;;;;;19.08;12.52;;;5.30;56.50;;;;;;2098080;28;20730;-57
2021/01/15 02:13:13;;;;;;;20.20;13.10;;;5.30;56.50;;;;;;2104612;28;20493;-57
2021/01/15 02:14:49;;;;;;;21.45;15.15;;;5.30;56.40;;;;;;2103915;28;20024;-57
2021/01/15 02:16:13;;;;;;;19.98;14.43;;;5.30;56.40;;;;;;2104011;28;20118;-57
2021/01/15 02:17:45;;;;;;;20.73;14.38;;;5.30;56.40;;;;;;2105938;28;20081;-57
2021/01/15 02:19:27;;;;;;;18.42;12.73;;;5.30;56.50;;;;;;2102421;28;20157;-58
2021/01/15 02:20:58;;;;;;;14.27;10.93;;;5.30;56.50;;;;;;2103703;28;20082;-57
2021/01/15 02:22:46;;;;;;;14.38;10.30;;;5.30;56.50;;;;;;2104542;28;20094;-58
2021/01/15 02:24:27;;;;;;;12.70;9.10;;;5.30;56.60;;;;;;2104663;28;20372;-57
2021/01/15 02:26:32;;;;;;;10.23;7.40;;;5.30;56.60;;;;;;2104806;28;20462;-57
2021/01/15 02:28:10;;;;;;;8.63;7.57;;;5.30;56.70;;;;;;2090810;28;20028;-58
2021/01/15 02:29:32;;;;;;;8.68;7.30;;;5.30;56.60;;;;;;2105001;28;20430;-58
2021/01/15 02:31:31;;;;;;;7.35;6.45;;;5.30;56.60;;;;;;2105275;28;20031;-58
2021/01/15 02:33:15;;;;;;;7.90;5.88;;;5.30;56.70;;;;;;2105654;28;20157;-57
2021/01/15 02:35:14;;;;;;;7.15;6.18;;;5.30;56.70;;;;;;2104799;28;20047;-58
2021/01/15 02:36:41;;;;;;;7.32;6.63;;;5.30;56.80;;;;;;2105357;28;20024;-57
2021/01/15 02:38:27;;;;;;;6.88;6.13;;;5.30;56.70;;;;;;2104788;28;20584;-57
2021/01/15 02:39:59;;;;;;;9.05;6.43;;;5.30;56.80;;;;;;2105755;28;20024;-57
2021/01/15 02:41:25;;;;;;;7.45;6.70;;;5.30;56.90;;;;;;2103650;28;20016;-57
2021/01/15 02:42:48;;;;;;;10.85;7.75;;;5.30;56.90;;;;;;2105529;28;20020;-57
2021/01/15 02:44:12;;;;;;;10.57;8.02;;;5.30;57.10;;;;;;2106272;28;20032;-57
2021/01/15 02:45:34;;;;;;;12.07;7.63;;;5.30;57.20;;;;;;2104723;28;20323;-57
2021/01/15 02:46:59;;;;;;;8.57;7.55;;;5.30;57.20;;;;;;2105617;28;20028;-57
2021/01/15 02:48:22;;;;;;;10.52;7.75;;;5.30;57.40;;;;;;2105105;28;20626;-58
2021/01/15 02:49:43;;;;;;;9.38;8.00;;;5.30;57.50;;;;;;2109274;28;20038;-58
2021/01/15 02:51:06;;;;;;;11.82;8.55;;;5.30;57.50;;;;;;2102719;28;20036;-57
2021/01/15 02:52:27;;;;;;;10.50;8.45;;;5.30;57.50;;;;;;2107023;28;20039;-57
2021/01/15 02:53:48;;;;;;;10.18;8.38;;;5.30;57.60;;;;;;2104063;28;20449;-58
2021/01/15 02:55:11;;;;;;;10.98;8.68;;;5.30;57.70;;;;;;2103519;28;20032;-58
2021/01/15 02:56:32;;;;;;;13.07;8.60;;;5.30;57.70;;;;;;2105048;28;20667;-57
2021/01/15 02:57:53;;;;;;;11.80;8.18;;;5.40;57.80;;;;;;2105940;28;20391;-60
2021/01/15 02:59:15;;;;;;;11.98;8.70;;;5.40;57.80;;;;;;2105650;28;20060;-57
2021/01/15 03:00:36;;;;;;;9.90;8.63;;;5.40;57.80;;;;;;2104611;28;20021;-57
2021/01/15 03:02:31;;;;;;;10.13;8.73;;;5.40;57.90;;;;;;2105486;28;20409;-57
2021/01/15 03:04:03;;;;;;;11.52;8.00;;;5.40;58.00;;;;;;2105347;28;20094;-57
2021/01/15 03:05:39;;;;;;;11.65;8.63;;;5.50;57.90;;;;;;2099540;28;20020;-57
2021/01/15 03:07:04;;;;;;;12.25;9.73;;;5.50;57.90;;;;;;2096132;28;20526;-57
2021/01/15 03:08:26;;;;;;;10.00;8.57;;;5.50;57.90;;;;;;2098483;28;20108;-57
2021/01/15 03:09:49;;;;;;;14.20;9.60;;;5.50;57.90;;;;;;2109342;28;20019;-57
2021/01/15 03:11:11;;;;;;;12.70;9.52;;;5.50;57.90;;;;;;2105711;28;20036;-58
2021/01/15 03:12:33;;;;;;;11.25;8.60;;;5.50;58.00;;;;;;2104804;28;20446;-57
2021/01/15 03:13:54;;;;;;;11.82;9.82;;;5.50;57.90;;;;;;2104703;28;20344;-58
2021/01/15 03:15:18;;;;;;;10.60;8.55;;;5.60;58.00;;;;;;2105550;28;20043;-58
2021/01/15 03:16:41;;;;;;;13.55;8.98;;;5.60;57.90;;;;;;2105754;28;20032;-58
2021/01/15 03:18:02;;;;;;;12.27;9.52;;;5.60;57.90;;;;;;2104302;28;20028;-58
2021/01/15 03:19:23;;;;;;;12.40;8.88;;;5.60;57.90;;;;;;2105044;28;20359;-57
2021/01/15 03:20:44;;;;;;;13.30;9.32;;;5.60;57.90;;;;;;2105357;28;20413;-58
2021/01/15 03:22:16;;;;;;;14.35;9.23;;;5.60;57.90;;;;;;2104890;28;20035;-58
2021/01/15 03:23:37;;;;;;;11.00;8.77;;;5.60;57.90;;;;;;2110330;28;20027;-58
2021/01/15 03:25:00;;;;;;;12.43;9.48;;;5.70;58.00;;;;;;2099982;28;20451;-58
2021/01/15 03:26:21;;;;;;;12.13;9.15;;;5.70;58.00;;;;;;2106106;28;20034;-58
2021/01/15 03:27:43;;;;;;;15.27;9.85;;;5.70;58.00;;;;;;2103650;28;20020;-57
2021/01/15 03:29:04;;;;;;;11.82;9.02;;;5.70;58.00;;;;;;2106629;28;20032;-58
2021/01/15 03:30:30;;;;;;;12.18;9.70;;;5.70;58.00;;;;;;2105298;28;20044;-58
2021/01/15 03:31:51;;;;;;;12.95;9.68;;;5.70;58.10;;;;;;2106179;28;20020;-58
2021/01/15 03:33:12;;;;;;;12.07;8.80;;;5.70;58.10;;;;;;2105180;28;20106;-57
2021/01/15 03:34:32;;;;;;;13.80;9.52;;;5.80;58.10;;;;;;2104446;28;20032;-58
2021/01/15 03:35:53;;;;;;;13.63;9.80;;;5.80;58.10;;;;;;2097069;28;20111;-58
2021/01/15 03:37:14;;;;;;;13.05;9.25;;;5.80;58.00;;;;;;2103824;28;20481;-58
2021/01/15 03:38:35;;;;;;;12.80;9.75;;;5.80;58.00;;;;;;2104674;28;20056;-58
2021/01/15 03:39:56;;;;;;;12.80;9.55;;;5.80;57.90;;;;;;2104289;28;20016;-58
2021/01/15 03:41:17;;;;;;;14.05;9.18;;;5.80;57.90;;;;;;2104356;28;20043;-58
2021/01/15 03:42:38;;;;;;;14.00;9.57;;;5.90;58.00;;;;;;2104591;28;20062;-57
2021/01/15 03:43:58;;;;;;;12.23;9.15;;;5.90;58.00;;;;;;2104663;28;20505;-58
2021/01/15 03:45:20;;;;;;;10.80;8.50;;;5.90;58.00;;;;;;2105736;28;20028;-58
2021/01/15 03:46:41;;;;;;;13.23;8.85;;;5.90;58.00;;;;;;2105116;28;20023;-58
2021/01/15 03:48:02;;;;;;;13.18;9.13;;;5.90;58.00;;;;;;2105288;28;20600;-58
2021/01/15 03:49:23;;;;;;;12.75;8.38;;;5.90;57.90;;;;;;2103934;28;20043;-58
2021/01/15 03:50:44;;;;;;;12.65;9.05;;;5.90;57.80;;;;;;2106235;28;20107;-58
2021/01/15 03:52:10;;;;;;;12.77;8.90;;;5.90;57.80;;;;;;2102829;28;20028;-58
2021/01/15 03:53:31;;;;;;;12.98;8.43;;;6.00;57.80;;;;;;2105845;28;20028;-57
2021/01/15 03:54:51;;;;;;;13.10;9.57;;;6.00;57.80;;;;;;2103638;28;20082;-58
2021/01/15 03:56:16;;;;;;;8.93;8.02;;;6.00;57.70;;;;;;2104980;28;20490;-58
2021/01/15 03:57:37;;;;;;;11.88;8.90;;;6.00;57.80;;;;;;2105272;28;20036;-57
2021/01/15 03:58:57;;;;;;;12.82;9.15;;;6.00;57.80;;;;;;2104935;28;20020;-57
2021/01/15 04:00:19;;;;;;;12.50;9.05;;;6.00;57.70;;;;;;2105903;28;20024;-58
2021/01/15 04:01:41;;;;;;;11.45;8.55;;;6.00;57.70;;;;;;2104544;28;20036;-57
2021/01/15 04:03:02;;;;;;;10.13;8.32;;;6.00;57.70;;;;;;2101169;28;20043;-57
2021/01/15 04:04:23;;;;;;;9.82;8.68;;;6.00;57.60;;;;;;2104066;28;20029;-58
2021/01/15 04:05:44;;;;;;;11.90;8.95;;;6.00;57.60;;;;;;2105604;28;20169;-57
2021/01/15 04:07:05;;;;;;;11.32;8.27;;;6.00;57.60;;;;;;2102112;28;20032;-58
2021/01/15 04:08:26;;;;;;;11.50;8.95;;;6.00;57.60;;;;;;2105656;28;20111;-57
2021/01/15 04:09:47;;;;;;;13.63;9.45;;;6.00;57.60;;;;;;2105403;28;20452;-59
2021/01/15 04:11:07;;;;;;;10.23;8.32;;;6.00;57.50;;;;;;2105171;28;20460;-58
2021/01/15 04:12:31;;;;;;;10.23;7.90;;;6.00;57.60;;;;;;2105483;28;20598;-57
2021/01/15 04:13:52;;;;;;;13.63;8.77;;;6.00;57.50;;;;;;2105965;28;20032;-58
2021/01/15 04:15:15;;;;;;;10.38;8.20;;;6.00;57.50;;;;;;2105387;28;20381;-58
2021/01/15 04:16:36;;;;;;;12.55;8.27;;;6.00;57.50;;;;;;2104101;28;20035;-57
2021/01/15 04:17:59;;;;;;;9.23;8.00;;;6.00;57.50;;;;;;2098440;28;20023;-58
2021/01/15 04:19:20;;;;;;;11.07;8.00;;;6.10;57.60;;;;;;2104910;28;20024;-58
2021/01/15 04:20:41;;;;;;;10.07;8.00;;;6.00;57.60;;;;;;2095690;28;20032;-58
2021/01/15 04:22:02;;;;;;;11.45;8.25;;;6.00;57.60;;;;;;2103868;28;20023;-57
2021/01/15 04:23:23;;;;;;;10.30;8.05;;;6.10;57.60;;;;;;2107356;28;20023;-56
2021/01/15 04:24:44;;;;;;;10.02;8.43;;;6.00;57.60;;;;;;2105059;28;20016;-57
2021/01/15 04:26:05;;;;;;;10.20;8.00;;;6.00;57.60;;;;;;2103209;28;20028;-58
2021/01/15 04:27:30;;;;;;;10.50;8.43;;;6.10;57.60;;;;;;2105332;28;20024;-57
2021/01/15 04:28:51;;;;;;;10.27;8.38;;;6.10;57.60;;;;;;2105072;28;20035;-58
2021/01/15 04:30:13;;;;;;;11.48;8.70;;;6.10;58.10;;;;;;2102511;28;20082;-58
2021/01/15 04:31:34;;;;;;;8.95;7.82;;;6.10;57.60;;;;;;2097738;28;20439;-58
2021/01/15 04:32:55;;;;;;;8.90;7.63;;;6.10;57.60;;;;;;2098425;28;20459;-57
2021/01/15 04:34:16;;;;;;;12.25;8.32;;;6.10;57.60;;;;;;2103574;28;20036;-58
2021/01/15 04:35:37;;;;;;;10.45;7.97;;;6.10;57.60;;;;;;2105733;28;20049;-58
2021/01/15 04:36:58;;;;;;;10.98;8.75;;;6.10;57.60;;;;;;2104869;28;20020;-58
2021/01/15 04:38:19;;;;;;;11.60;8.57;;;6.10;57.60;;;;;;2104553;28;20086;-57
2021/01/15 04:39:40;;;;;;;9.38;7.93;;;6.10;57.60;;;;;;2104632;28;20016;-58
2021/01/15 04:41:01;;;;;;;11.00;8.60;;;6.10;57.60;;;;;;2105751;28;20093;-58
2021/01/15 04:42:24;;;;;;;9.98;8.23;;;6.10;57.60;;;;;;2104337;28;20446;-57
2021/01/15 04:43:54;;;;;;;11.88;8.20;;;6.10;57.60;;;;;;2104472;28;20396;-57
2021/01/15 04:45:16;;;;;;;11.00;8.38;;;6.10;57.60;;;;;;2103732;28;20039;-58
2021/01/15 04:46:41;;;;;;;10.55;8.77;;;6.10;57.70;;;;;;2104356;28;20031;-57
2021/01/15 04:48:02;;;;;;;12.52;7.95;;;6.10;57.70;;;;;;2104281;28;20038;-58
2021/01/15 04:49:26;;;;;;;9.95;8.07;;;6.10;57.80;;;;;;2104736;28;20036;-58
2021/01/15 04:50:50;;;;;;;8.98;7.93;;;6.10;57.80;;;;;;2106151;28;20031;-58
2021/01/15 04:52:13;;;;;;;11.10;8.43;;;6.20;57.80;;;;;;2106185;28;20952;-58
2021/01/15 04:53:38;;;;;;;9.60;8.00;;;6.20;57.80;;;;;;2106868;28;20036;-58
2021/01/15 04:54:59;;;;;;;9.65;7.60;;;6.20;57.70;;;;;;2106845;28;20031;-57
2021/01/15 04:56:40;;;;;;;10.60;8.35;;;6.20;57.70;;;;;;2097969;28;20024;-57
2021/01/15 04:58:01;;;;;;;8.63;7.43;;;6.20;57.70;;;;;;2106677;28;20019;-57
2021/01/15 04:59:22;;;;;;;10.38;8.60;;;6.20;57.70;;;;;;2105981;28;20043;-57
2021/01/15 05:00:46;;;;;;;11.18;9.18;;;6.20;57.70;;;;;;2106966;28;20109;-57
2021/01/15 05:02:08;;;;;;;11.02;8.88;;;6.20;57.70;;;;;;2103635;28;20062;-58
2021/01/15 05:03:30;;;;;;;10.25;8.30;;;6.20;57.70;;;;;;2103340;28;20075;-56
2021/01/15 05:04:58;;;;;;;9.38;8.30;;;6.20;57.70;;;;;;2106733;28;20032;-58
2021/01/15 05:06:21;;;;;;;11.07;8.52;;;6.20;57.70;;;;;;2105369;28;20009;-57
2021/01/15 05:08:09;;;;;;;12.20;8.80;;;6.30;57.80;;;;;;2098457;28;20443;-58
2021/01/15 05:09:47;;;;;;;11.38;8.50;;;6.20;57.80;;;;;;2107281;28;20473;-57
2021/01/15 05:11:09;;;;;;;10.35;8.93;;;6.30;57.80;;;;;;2103826;28;20020;-58
2021/01/15 05:12:30;;;;;;;11.38;8.88;;;6.30;57.80;;;;;;2106825;28;20103;-58
2021/01/15 05:13:53;;;;;;;11.70;8.57;;;6.30;57.80;;;;;;2097357;28;20127;-58
2021/01/15 05:15:14;;;;;;;10.45;8.98;;;6.30;57.90;;;;;;2105381;28;20024;-58
2021/01/15 05:16:40;;;;;;;11.55;9.13;;;6.30;57.90;;;;;;2106309;28;20789;-58
2021/01/15 05:18:03;;;;;;;10.98;9.00;;;6.30;57.90;;;;;;2105382;28;20457;-57
2021/01/15 05:19:24;;;;;;;12.45;9.32;;;6.30;57.90;;;;;;2105678;28;20028;-58
2021/01/15 05:20:46;;;;;;;12.27;9.30;;;6.30;57.90;;;;;;2106871;28;20024;-58
2021/01/15 05:22:08;;;;;;;12.80;10.00;;;6.30;58.00;;;;;;2105496;28;20027;-57
2021/01/15 05:23:29;;;;;;;11.55;9.50;;;6.30;58.00;;;;;;2105048;28;20024;-57
2021/01/15 05:24:50;;;;;;;11.63;9.25;;;6.30;58.00;;;;;;2104137;28;20030;-56
2021/01/15 05:26:15;;;;;;;12.93;9.80;;;6.30;58.00;;;;;;2105911;28;20016;-54
2021/01/15 05:27:38;;;;;;;11.02;8.93;;;6.30;58.00;;;;;;2106994;28;20399;-58
2021/01/15 05:29:01;;;;;;;11.90;9.27;;;6.40;58.10;;;;;;2109550;28;20036;-58
2021/01/15 05:30:23;;;;;;;12.00;9.32;;;6.30;58.10;;;;;;2105839;28;20401;-57
2021/01/15 05:31:59;;;;;;;12.15;9.45;;;6.40;58.10;;;;;;2106774;28;20434;-57
2021/01/15 05:33:20;;;;;;;13.00;10.25;;;6.30;58.10;;;;;;2103100;28;20034;-57
2021/01/15 05:34:49;;;;;;;10.90;9.20;;;6.40;58.20;;;;;;2107354;28;20012;-58
2021/01/15 05:36:28;;;;;;;15.00;10.35;;;6.30;58.20;;;;;;2099713;28;20019;-58
2021/01/15 05:37:59;;;;;;;11.38;9.60;;;6.40;58.30;;;;;;2098787;28;20021;-58
2021/01/15 05:39:25;;;;;;;12.60;9.00;;;6.40;58.30;;;;;;2100298;28;20016;-57
2021/01/15 05:40:48;;;;;;;10.98;8.93;;;6.40;58.30;;;;;;2098936;28;20107;-58
2021/01/15 05:42:09;;;;;;;12.77;9.82;;;6.40;58.30;;;;;;2105571;28;20119;-59
2021/01/15 05:43:32;;;;;;;11.75;9.85;;;6.40;58.30;;;;;;2103958;28;20025;-58
2021/01/15 05:45:13;;;;;;;13.88;10.25;;;6.40;58.30;;;;;;2103913;28;20043;-58
2021/01/15 05:46:34;;;;;;;10.73;9.50;;;6.40;58.30;;;;;;2106224;28;20043;-58
2021/01/15 05:47:55;;;;;;;11.75;9.68;;;6.40;58.30;;;;;;2107775;28;20064;-58
2021/01/15 05:49:16;;;;;;;12.02;9.43;;;6.40;58.30;;;;;;2103920;28;20035;-58
2021/01/15 05:50:39;;;;;;;14.05;10.10;;;6.40;58.40;;;;;;2105434;28;20028;-58
2021/01/15 05:52:07;;;;;;;14.02;9.60;;;6.40;58.40;;;;;;2106345;28;20383;-58
2021/01/15 05:53:40;;;;;;;13.05;10.48;;;6.40;58.50;;;;;;2106497;28;20027;-58
2021/01/15 05:55:11;;;;;;;14.13;10.57;;;6.40;58.40;;;;;;2106213;28;20059;-58
2021/01/15 05:56:42;;;;;;;14.32;10.50;;;6.40;58.40;;;;;;2105100;28;20036;-57
2021/01/15 05:58:10;;;;;;;13.52;10.50;;;6.40;58.40;;;;;;2104042;28;20020;-57
2021/01/15 05:59:37;;;;;;;14.73;10.63;;;6.50;58.50;;;;;;2106322;28;20051;-57
2021/01/15 06:00:58;;;;;;;11.90;9.38;;;6.40;58.40;;;;;;2103592;28;20038;-57
2021/01/15 06:02:19;;;;;;;11.93;10.30;;;6.50;58.50;;;;;;2105143;28;20025;-58
2021/01/15 06:03:40;;;;;;;12.55;9.85;;;6.50;58.50;;;;;;2106127;28;20077;-57
2021/01/15 06:05:03;;;;;;;12.20;9.13;;;6.50;58.50;;;;;;2105672;28;20036;-58
2021/01/15 06:06:31;;;;;;;14.80;10.98;;;6.50;58.50;;;;;;2105155;28;20035;-58
2021/01/15 06:07:54;;;;;;;13.82;10.65;;;6.50;58.60;;;;;;2104957;28;20039;-57
2021/01/15 06:09:20;;;;;;;12.85;9.98;;;6.50;58.60;;;;;;2103757;28;20043;-57
2021/01/15 06:10:43;;;;;;;13.70;10.05;;;6.50;58.60;;;;;;2105871;28;20035;-58
2021/01/15 06:12:09;;;;;;;14.57;10.35;;;6.50;58.60;;;;;;2104476;28;20028;-56
2021/01/15 06:13:39;;;;;;;12.73;10.45;;;6.50;58.60;;;;;;2104424;28;20082;-58
2021/01/15 06:15:00;;;;;;;;;;;6.50;58.60;;;;;;2106783;28;20036;-56
2021/01/15 06:16:21;;;;;;;10.52;8.80;;;6.50;58.70;;;;;;2103821;28;19950;-57
2021/01/15 06:17:49;;;;;;;12.55;10.40;;;6.50;58.50;;;;;;2108285;28;20055;-58
2021/01/15 06:19:10;;;;;;;15.00;10.52;;;6.50;58.50;;;;;;2101015;28;20016;-57
2021/01/15 06:20:34;;;;;;;12.93;10.40;;;6.50;58.50;;;;;;2106123;28;20099;-58
2021/01/15 06:21:55;;;;;;;14.63;10.82;;;6.50;58.60;;;;;;2108187;28;20027;-57
2021/01/15 06:23:17;;;;;;;13.07;10.38;;;6.50;58.60;;;;;;2103544;28;20031;-58
2021/01/15 06:24:41;;;;;;;14.00;10.23;;;6.50;58.60;;;;;;2106281;28;20472;-57
2021/01/15 06:26:07;;;;;;;13.38;10.68;;;6.50;58.70;;;;;;2102385;28;20028;-57
2021/01/15 06:27:34;;;;;;;11.68;9.93;;;6.50;58.70;;;;;;2104611;28;20446;-57
2021/01/15 06:29:05;;;;;;;13.80;10.70;;;6.50;58.70;;;;;;2105460;28;20055;-58
2021/01/15 06:30:31;;;;;;;17.15;11.10;;;6.50;58.70;;;;;;2106023;28;20020;-58
2021/01/15 06:31:52;;;;;;;15.68;10.95;;;6.50;58.70;;;;;;2105028;28;20086;-58
2021/01/15 06:33:14;;;;;;;13.10;10.23;;;6.50;58.80;;;;;;2104840;28;20031;-57
2021/01/15 06:34:46;;;;;;;15.13;11.40;;;6.50;58.80;;;;;;2105409;28;20043;-58
2021/01/15 06:36:07;;;;;;;15.68;10.93;;;6.50;58.80;;;;;;2101949;28;20032;-58
2021/01/15 06:37:29;;;;;;;14.60;11.35;;;6.50;58.80;;;;;;2105406;28;20032;-57
2021/01/15 06:38:50;;;;;;;15.50;11.07;;;6.50;58.80;;;;;;2106748;28;20024;-57
2021/01/15 06:40:11;;;;;;;16.00;11.55;;;6.60;58.80;;;;;;2102695;28;20038;-56
2021/01/15 06:41:35;;;;;;;16.08;11.68;;;6.50;58.80;;;;;;2105364;28;20048;-57
2021/01/15 06:42:58;;;;;;;15.18;10.75;;;6.50;58.80;;;;;;2104922;28;20032;-58
2021/01/15 06:44:21;;;;;;;14.25;11.05;;;6.50;58.80;;;;;;2105809;28;20020;-58
2021/01/15 06:45:56;;;;;;;15.07;11.52;;;6.50;58.80;;;;;;2106187;28;20361;-58
2021/01/15 06:47:25;;;;;;;13.20;10.98;;;6.50;58.80;;;;;;2104865;28;20028;-58
2021/01/15 06:48:52;;;;;;;15.80;10.80;;;6.60;58.80;;;;;;2109474;28;20027;-57
2021/01/15 06:50:15;;;;;;;14.20;11.35;;;6.60;58.80;;;;;;2101024;28;20036;-57
2021/01/15 06:51:43;;;;;;;16.45;11.65;;;6.60;58.80;;;;;;2101993;28;20028;-58
2021/01/15 06:53:20;;;;;;;14.30;11.00;;;6.60;58.80;;;;;;2099213;28;20169;-57
2021/01/15 06:54:45;;;;;;;15.18;11.32;;;6.50;58.80;;;;;;2103563;28;20043;-57
2021/01/15 06:56:07;;;;;;;17.23;11.80;;;6.50;58.80;;;;;;2102157;28;20340;-57
2021/01/15 06:57:30;;;;;;;14.23;11.10;;;6.50;58.80;;;;;;2103269;28;20107;-57
2021/01/15 06:58:56;;;;;;;14.75;11.07;;;6.50;58.80;;;;;;2104464;28;20456;-58
2021/01/15 07:00:21;;;;;;;15.73;11.40;;;6.50;58.90;;;;;;2104226;28;20028;-58
2021/01/15 07:02:07;;;;;;;15.93;12.18;;;6.50;58.90;;;;;;2104745;28;20055;-58
2021/01/15 07:03:50;;;;;;;16.58;11.55;;;6.50;58.90;;;;;;2102749;28;20044;-57
2021/01/15 07:05:14;;;;;;;14.40;10.93;;;6.60;59.00;;;;;;2101999;28;20040;-56
2021/01/15 07:06:37;;;;;;;15.00;11.23;;;6.60;58.90;;;;;;2104080;28;20036;-58
2021/01/15 07:08:02;;;;;;;16.17;11.40;;;6.60;58.90;;;;;;2104479;28;20060;-58
2021/01/15 07:09:29;;;;;;;14.27;11.23;;;6.60;58.90;;;;;;2105105;28;20055;-58
2021/01/15 07:10:50;;;;;;;16.90;12.10;;;6.50;58.90;;;;;;2105244;28;20907;-57
2021/01/15 07:12:16;;;;;;;14.73;10.85;;;6.50;58.90;;;;;;2105133;28;20048;-57
2021/01/15 07:13:41;;;;;;;16.65;11.85;;;6.50;58.90;;;;;;2104732;28;20028;-58
2021/01/15 07:15:06;;;;;;;15.80;11.80;;;6.50;59.00;;;;;;2103263;28;20082;-58
2021/01/15 07:16:38;;;;;;;16.02;12.18;;;6.50;59.00;;;;;;2103567;28;20059;-58
2021/01/15 07:18:00;;;;;;;15.38;12.35;;;6.50;59.00;;;;;;2103994;28;20040;-58
2021/01/15 07:19:34;;;;;;;14.65;11.57;;;6.50;59.00;;;;;;2104698;28;20115;-56
2021/01/15 07:20:57;;;;;;;15.80;11.85;;;6.50;59.10;;;;;;2104128;28;20028;-58